createdAt,value
2018-12-07T00:00:43.842Z,-7.6
2018-12-07T00:01:34.479Z,-7.6
2018-12-07T00:02:23.679Z,-7.6
2018-12-07T00:03:14.264Z,-7.6
2018-12-07T00:04:04.349Z,-7.6
2018-12-07T00:04:54.654Z,-7.7
2018-12-07T00:05:44.462Z,-7.7
2018-12-07T00:06:34.521Z,-7.7
2018-12-07T00:24:42.565Z,-7.9
2018-12-07T00:25:32.500Z,-7.9
2018-12-07T00:26:22.455Z,-7.9
2018-12-07T00:27:12.498Z,-7.9
2018-12-07T00:28:02.265Z,-7.9
2018-12-07T00:28:52.869Z,-7.9
2018-12-07T00:29:42.755Z,-7.9
2018-12-07T00:30:32.172Z,-8
2018-12-07T00:31:22.490Z,-7.9
2018-12-07T00:32:12.927Z,-8
2018-12-07T00:33:02.337Z,-7.9
2018-12-07T00:33:52.117Z,-8
2018-12-07T00:34:42.447Z,-8
2018-12-07T00:35:33.079Z,-8
2018-12-07T00:36:22.934Z,-8
2018-12-07T00:37:13.177Z,-8
2018-12-07T00:38:03.242Z,-8
2018-12-07T00:38:53.617Z,-8
2018-12-07T00:39:43.339Z,-8.1
2018-12-07T00:40:32.845Z,-8
2018-12-07T00:41:23.468Z,-8.1
2018-12-07T00:42:13.243Z,-8.1
2018-12-07T00:43:03.581Z,-8.1
2018-12-07T00:43:53.951Z,-8.1
2018-12-07T00:44:43.688Z,-8.1
2018-12-07T00:45:33.477Z,-8.1
2018-12-07T00:46:23.819Z,-8.1
2018-12-07T00:47:13.574Z,-8.1
2018-12-07T00:48:03.379Z,-8.1
2018-12-07T00:48:54.211Z,-8.1
2018-12-07T00:49:44.121Z,-8.1
2018-12-07T00:50:33.868Z,-8.1
2018-12-07T00:51:23.874Z,-8.1
2018-12-07T00:52:14.213Z,-8.1
2018-12-07T00:53:03.991Z,-8.2
2018-12-07T00:53:54.313Z,-8.2
2018-12-07T00:54:44.093Z,-8.2
2018-12-07T00:55:34.676Z,-8.2
2018-12-07T00:56:24.536Z,-8.2
2018-12-07T00:57:13.993Z,-8.3
2018-12-07T00:58:04.615Z,-8.3
2018-12-07T00:58:54.106Z,-8.3
2018-12-07T00:59:44.441Z,-8.3
2018-12-07T01:00:34.561Z,-8.3
2018-12-07T01:01:24.820Z,-8.3
2018-12-07T01:02:14.360Z,-8.4
2018-12-07T01:03:04.698Z,-8.4
2018-12-07T01:03:55.301Z,-8.4
2018-12-07T01:04:45.069Z,-8.4
2018-12-07T01:05:35.093Z,-8.4
2018-12-07T01:06:24.906Z,-8.4
2018-12-07T01:07:14.960Z,-8.4
2018-12-07T01:08:05.282Z,-8.4
2018-12-07T01:08:55.077Z,-8.4
2018-12-07T01:09:45.132Z,-8.3
2018-12-07T01:10:35.760Z,-8.3
2018-12-07T01:11:24.971Z,-8.3
2018-12-07T01:12:15.297Z,-8.3
2018-12-07T01:13:05.391Z,-8.4
2018-12-07T01:13:55.776Z,-8.3
2018-12-07T01:14:45.474Z,-8.3
2018-12-07T01:15:35.815Z,-8.3
2018-12-07T01:16:25.597Z,-8.3
2018-12-07T01:17:15.924Z,-8.3
2018-12-07T01:18:05.715Z,-8.3
2018-12-07T01:18:55.518Z,-8.3
2018-12-07T01:19:46.107Z,-8.3
2018-12-07T01:20:35.597Z,-8.3
2018-12-07T01:21:26.201Z,-8.3
2018-12-07T01:22:16.277Z,-8.3
2018-12-07T01:23:06.067Z,-8.3
2018-12-07T01:23:56.122Z,-8.4
2018-12-07T01:24:46.167Z,-8.4
2018-12-07T01:25:36.511Z,-8.4
2018-12-07T01:26:26.557Z,-8.4
2018-12-07T01:27:16.039Z,-8.4
2018-12-07T01:28:06.124Z,-8.4
2018-12-07T01:28:56.168Z,-8.4
2018-12-07T01:29:46.572Z,-8.4
2018-12-07T01:30:36.843Z,-8.4
2018-12-07T01:31:27.209Z,-8.4
2018-12-07T01:32:17.230Z,-8.4
2018-12-07T01:33:07.014Z,-8.4
2018-12-07T01:33:56.794Z,-8.4
2018-12-07T01:34:47.138Z,-8.4
2018-12-07T01:35:37.278Z,-8.4
2018-12-07T01:36:26.699Z,-8.4
2018-12-07T01:37:17.606Z,-8.4
2018-12-07T01:38:07.363Z,-8.4
2018-12-07T01:38:57.136Z,-8.4
2018-12-07T01:39:46.920Z,-8.4
2018-12-07T01:40:37.535Z,-8.4
2018-12-07T01:41:27.620Z,-8.4
2018-12-07T01:42:17.410Z,-8.4
2018-12-07T01:43:07.422Z,-8.4
2018-12-07T01:43:57.478Z,-8.4
2018-12-07T01:44:47.556Z,-8.4
2018-12-07T01:45:37.320Z,-8.4
2018-12-07T01:46:27.700Z,-8.4
2018-12-07T01:47:17.712Z,-8.4
2018-12-07T01:48:08.053Z,-8.3
2018-12-07T01:48:57.285Z,-8.3
2018-12-07T01:49:48.173Z,-8.4
2018-12-07T01:50:37.939Z,-8.3
2018-12-07T01:51:28.370Z,-8.4
2018-12-07T01:52:18.387Z,-8.4
2018-12-07T01:53:07.937Z,-8.4
2018-12-07T01:53:58.177Z,-8.4
2018-12-07T01:54:48.235Z,-8.4
2018-12-07T01:55:38.371Z,-8.4
2018-12-07T01:56:28.079Z,-8.3
2018-12-07T01:57:18.662Z,-8.3
2018-12-07T01:58:08.754Z,-8.3
2018-12-07T01:58:58.511Z,-8.3
2018-12-07T01:59:48.301Z,-8.4
2018-12-07T02:00:38.961Z,-8.4
2018-12-07T02:01:28.689Z,-8.4
2018-12-07T02:02:18.761Z,-8.3
2018-12-07T02:03:08.241Z,-8.4
2018-12-07T02:03:59.141Z,-8.3
2018-12-07T02:04:49.006Z,-8.4
2018-12-07T02:05:39.250Z,-8.3
2018-12-07T02:06:29.305Z,-8.3
2018-12-07T02:07:19.666Z,-8.3
2018-12-07T02:08:09.681Z,-8.3
2018-12-07T02:08:59.210Z,-8.3
2018-12-07T02:09:48.726Z,-8.3
2018-12-07T02:10:39.602Z,-8.3
2018-12-07T02:11:29.386Z,-8.2
2018-12-07T02:12:19.448Z,-8.2
2018-12-07T02:13:09.500Z,-8.2
2018-12-07T02:13:59.833Z,-8.2
2018-12-07T02:14:49.612Z,-8.2
2018-12-07T02:15:39.678Z,-8.2
2018-12-07T02:16:29.440Z,-8.2
2018-12-07T02:17:19.783Z,-8.2
2018-12-07T02:18:10.135Z,-8.2
2018-12-07T02:19:00.183Z,-8.2
2018-12-07T02:19:50.222Z,-8.2
2018-12-07T02:20:40.292Z,-8.2
2018-12-07T02:21:30.076Z,-8.2
2018-12-07T02:22:20.123Z,-8.1
2018-12-07T02:23:10.178Z,-8.1
2018-12-07T02:24:00.517Z,-8.1
2018-12-07T02:24:50.295Z,-8.2
2018-12-07T02:25:40.630Z,-8.2
2018-12-07T02:26:30.695Z,-8.1
2018-12-07T02:27:20.474Z,-8.1
2018-12-07T02:28:10.859Z,-8.1
2018-12-07T02:29:00.380Z,-8.1
2018-12-07T02:29:50.377Z,-8.1
2018-12-07T02:30:41.005Z,-8.1
2018-12-07T02:31:30.780Z,-8.1
2018-12-07T02:32:21.107Z,-8.1
2018-12-07T02:33:11.147Z,-8.1
2018-12-07T02:34:01.215Z,-8.1
2018-12-07T02:34:51.519Z,-8.1
2018-12-07T02:35:40.763Z,-8.1
2018-12-07T02:36:31.122Z,-8.1
2018-12-07T02:37:21.459Z,-8.1
2018-12-07T02:38:11.753Z,-8.2
2018-12-07T02:39:01.015Z,-8.2
2018-12-07T02:39:51.332Z,-8.2
2018-12-07T02:40:41.664Z,-8.3
2018-12-07T02:41:31.451Z,-8.3
2018-12-07T02:42:21.504Z,-8.3
2018-12-07T02:43:11.582Z,-8.3
2018-12-07T02:44:01.702Z,-8.3
2018-12-07T02:44:51.675Z,-8.3
2018-12-07T02:45:41.726Z,-8.3
2018-12-07T02:46:31.791Z,-8.3
2018-12-07T02:47:21.854Z,-8.3
2018-12-07T02:48:11.939Z,-8.3
2018-12-07T02:49:01.961Z,-8.3
2018-12-07T02:49:52.288Z,-8.3
2018-12-07T02:50:42.363Z,-8.3
2018-12-07T02:51:32.143Z,-8.3
2018-12-07T02:52:22.481Z,-8.3
2018-12-07T02:53:12.238Z,-8.3
2018-12-07T02:54:02.433Z,-8.4
2018-12-07T02:54:52.370Z,-8.4
2018-12-07T02:55:42.989Z,-8.4
2018-12-07T02:56:32.483Z,-8.4
2018-12-07T02:57:22.548Z,-8.4
2018-12-07T02:58:12.888Z,-8.4
2018-12-07T02:59:02.374Z,-8.4
2018-12-07T02:59:52.420Z,-8.5
2018-12-07T03:00:43.039Z,-8.4
2018-12-07T03:01:32.820Z,-8.5
2018-12-07T03:02:23.151Z,-8.5
2018-12-07T03:03:13.212Z,-8.5
2018-12-07T03:04:03.602Z,-8.5
2018-12-07T03:04:53.312Z,-8.5
2018-12-07T03:05:43.377Z,-8.6
2018-12-07T03:06:33.152Z,-8.6
2018-12-07T03:07:22.954Z,-8.6
2018-12-07T03:08:13.275Z,-8.6
2018-12-07T03:09:03.591Z,-8.6
2018-12-07T03:09:53.114Z,-8.7
2018-12-07T03:10:43.164Z,-8.7
2018-12-07T03:11:32.955Z,-8.7
2018-12-07T03:12:23.853Z,-8.7
2018-12-07T03:13:13.079Z,-8.8
2018-12-07T03:14:03.414Z,-8.8
2018-12-07T03:14:53.756Z,-8.8
2018-12-07T03:15:43.516Z,-8.8
2018-12-07T03:16:34.129Z,-8.8
2018-12-07T03:17:23.922Z,-8.8
2018-12-07T03:18:14.236Z,-8.8
2018-12-07T03:19:04.016Z,-8.8
2018-12-07T03:19:54.086Z,-8.8
2018-12-07T03:20:44.405Z,-8.9
2018-12-07T03:21:34.461Z,-8.9
2018-12-07T03:22:23.967Z,-8.9
2018-12-07T03:23:14.828Z,-8.9
2018-12-07T03:24:04.363Z,-9
2018-12-07T03:24:54.523Z,-9
2018-12-07T03:25:44.820Z,-9
2018-12-07T03:26:34.817Z,-9
2018-12-07T03:27:24.629Z,-9.1
2018-12-07T03:28:14.416Z,-9.1
2018-12-07T03:29:04.725Z,-9.1
2018-12-07T03:29:55.101Z,-9.1
2018-12-07T03:30:45.150Z,-9.1
2018-12-07T03:31:35.208Z,-9.1
2018-12-07T03:32:24.999Z,-9.1
2018-12-07T03:33:15.023Z,-9.1
2018-12-07T03:34:05.342Z,-9.1
2018-12-07T03:34:55.384Z,-9
2018-12-07T03:35:45.185Z,-9
2018-12-07T03:36:35.482Z,-9
2018-12-07T03:37:25.560Z,-9.1
2018-12-07T03:38:15.606Z,-9
2018-12-07T03:39:05.115Z,-9
2018-12-07T03:39:55.695Z,-9
2018-12-07T03:40:45.499Z,-9
2018-12-07T03:41:35.852Z,-9
2018-12-07T03:42:25.607Z,-9.1
2018-12-07T03:43:15.743Z,-9.1
2018-12-07T03:44:06.057Z,-9.1
2018-12-07T03:44:59.067Z,-9.1
2018-12-07T03:45:45.859Z,-9.1
2018-12-07T03:46:35.622Z,-9.1
2018-12-07T03:47:25.690Z,-9.1
2018-12-07T03:48:16.284Z,-9.1
2018-12-07T03:49:06.344Z,-9.1
2018-12-07T03:49:56.121Z,-9.2
2018-12-07T03:50:46.454Z,-9.2
2018-12-07T03:51:36.312Z,-9.2
2018-12-07T03:52:26.571Z,-9.3
2018-12-07T03:53:16.624Z,-9.3
2018-12-07T03:54:06.807Z,-9.3
2018-12-07T03:54:56.757Z,-9.3
2018-12-07T03:55:46.784Z,-9.3
2018-12-07T03:56:36.596Z,-9.3
2018-12-07T03:57:26.955Z,-9.3
2018-12-07T03:58:16.974Z,-9.4
2018-12-07T03:59:06.478Z,-9.4
2018-12-07T03:59:56.806Z,-9.4
2018-12-07T04:00:46.926Z,-9.4
2018-12-07T04:01:37.211Z,-9.4
2018-12-07T04:02:26.976Z,-9.4
2018-12-07T04:03:17.416Z,-9.4
2018-12-07T04:04:07.395Z,-9.5
2018-12-07T04:04:57.433Z,-9.5
2018-12-07T04:05:47.824Z,-9.5
2018-12-07T04:06:37.556Z,-9.5
2018-12-07T04:07:27.308Z,-9.5
2018-12-07T04:15:48.208Z,-9.6
2018-12-07T04:16:37.948Z,-9.6
2018-12-07T04:17:27.743Z,-9.7
2018-12-07T04:18:18.378Z,-9.7
2018-12-07T04:19:08.138Z,-9.7
2018-12-07T04:19:58.461Z,-9.7
2018-12-07T04:20:48.547Z,-9.7
2018-12-07T04:21:38.613Z,-9.7
2018-12-07T04:22:28.660Z,-9.7
2018-12-07T04:23:18.412Z,-9.8
2018-12-07T04:24:08.737Z,-9.8
2018-12-07T04:24:57.987Z,-9.8
2018-12-07T04:25:48.851Z,-9.8
2018-12-07T04:26:38.937Z,-9.8
2018-12-07T04:27:28.710Z,-9.8
2018-12-07T04:28:18.780Z,-9.8
2018-12-07T04:29:08.805Z,-9.8
2018-12-07T04:29:58.878Z,-9.8
2018-12-07T04:30:49.522Z,-9.9
2018-12-07T04:31:38.720Z,-9.9
2018-12-07T04:32:29.060Z,-9.9
2018-12-07T04:33:19.374Z,-9.9
2018-12-07T04:34:09.440Z,-9.9
2018-12-07T04:34:59.510Z,-9.9
2018-12-07T04:35:49.342Z,-9.9
2018-12-07T04:36:39.065Z,-9.8
2018-12-07T04:53:56.229Z,-9.7
2018-12-07T04:54:45.677Z,-9.8
2018-12-07T04:55:35.691Z,-9.8
2018-12-07T04:56:25.779Z,-9.8
2018-12-07T04:57:15.821Z,-9.7
2018-12-07T04:58:05.914Z,-9.8
2018-12-07T04:58:56.256Z,-9.7
2018-12-07T04:59:46.041Z,-9.7
2018-12-07T05:00:35.799Z,-9.8
2018-12-07T05:01:26.194Z,-9.7
2018-12-07T05:02:15.903Z,-9.8
2018-12-07T05:03:05.992Z,-9.8
2018-12-07T05:03:56.018Z,-9.7
2018-12-07T05:04:46.357Z,-9.7
2018-12-07T05:05:36.406Z,-9.7
2018-12-07T05:06:26.203Z,-9.7
2018-12-07T05:07:16.526Z,-9.8
2018-12-07T05:08:06.605Z,-9.8
2018-12-07T05:08:56.362Z,-9.8
2018-12-07T05:09:46.426Z,-9.8
2018-12-07T05:10:36.745Z,-9.8
2018-12-07T05:11:26.550Z,-9.8
2018-12-07T05:12:16.593Z,-9.8
2018-12-07T05:13:06.395Z,-9.8
2018-12-07T05:13:56.700Z,-9.7
2018-12-07T05:14:47.049Z,-9.7
2018-12-07T05:15:37.109Z,-9.6
2018-12-07T05:16:26.927Z,-9.6
2018-12-07T05:17:16.938Z,-9.6
2018-12-07T05:18:07.252Z,-9.6
2018-12-07T05:18:56.744Z,-9.6
2018-12-07T05:19:47.375Z,-9.7
2018-12-07T05:20:37.578Z,-9.7
2018-12-07T05:21:27.220Z,-9.7
2018-12-07T05:22:17.270Z,-9.7
2018-12-07T05:23:07.064Z,-9.7
2018-12-07T05:23:57.370Z,-9.7
2018-12-07T05:24:47.679Z,-9.7
2018-12-07T05:25:37.492Z,-9.8
2018-12-07T05:26:27.815Z,-9.7
2018-12-07T05:27:17.879Z,-9.7
2018-12-07T05:28:07.652Z,-9.8
2018-12-07T05:28:57.984Z,-9.7
2018-12-07T05:29:47.844Z,-9.7
2018-12-07T05:30:37.799Z,-9.6
2018-12-07T05:31:28.419Z,-9.6
2018-12-07T05:32:17.512Z,-9.6
2018-12-07T05:33:08.268Z,-9.6
2018-12-07T05:33:58.322Z,-9.6
2018-12-07T05:34:47.667Z,-9.6
2018-12-07T05:35:37.686Z,-9.6
2018-12-07T05:36:28.469Z,-9.6
2018-12-07T05:37:18.372Z,-9.6
2018-12-07T05:38:07.309Z,-9.7
2018-12-07T05:38:58.201Z,-9.7
2018-12-07T05:39:48.294Z,-9.7
2018-12-07T05:40:38.299Z,-9.7
2018-12-07T05:41:28.438Z,-9.7
2018-12-07T05:42:18.411Z,-9.7
2018-12-07T05:43:08.479Z,-9.7
2018-12-07T05:43:58.582Z,-9.7
2018-12-07T05:44:48.591Z,-9.7
2018-12-07T05:45:38.387Z,-9.7
2018-12-07T05:46:28.754Z,-9.7
2018-12-07T05:47:18.745Z,-9.7
2018-12-07T05:48:08.814Z,-9.6
2018-12-07T05:48:58.843Z,-9.7
2018-12-07T05:49:49.116Z,-9.6
2018-12-07T05:50:38.981Z,-9.7
2018-12-07T05:51:29.600Z,-9.7
2018-12-07T05:52:19.563Z,-9.7
2018-12-07T05:53:09.618Z,-9.6
2018-12-07T05:53:59.668Z,-9.6
2018-12-07T05:54:49.490Z,-9.6
2018-12-07T05:55:39.513Z,-9.6
2018-12-07T05:56:29.294Z,-9.6
2018-12-07T05:57:19.903Z,-9.6
2018-12-07T05:58:09.967Z,-9.6
2018-12-07T06:08:10.057Z,-9.5
2018-12-07T06:09:00.405Z,-9.5
2018-12-07T06:09:50.532Z,-9.4
2018-12-07T06:10:40.499Z,-9.4
2018-12-07T06:11:30.549Z,-9.4
2018-12-07T06:12:20.361Z,-9.4
2018-12-07T06:13:11.211Z,-9.4
2018-12-07T06:14:00.459Z,-9.4
2018-12-07T06:14:50.260Z,-9.4
2018-12-07T06:15:41.157Z,-9.3
2018-12-07T06:16:30.896Z,-9.3
2018-12-07T06:17:20.971Z,-9.3
2018-12-07T06:18:10.807Z,-9.2
2018-12-07T06:19:00.865Z,-9.2
2018-12-07T06:19:50.933Z,-9.1
2018-12-07T06:20:40.983Z,-9.1
2018-12-07T06:21:31.538Z,-9.1
2018-12-07T06:22:21.358Z,-9
2018-12-07T06:23:11.413Z,-8.9
2018-12-07T06:24:01.700Z,-8.9
2018-12-07T06:24:51.838Z,-8.8
2018-12-07T06:25:41.846Z,-8.7
2018-12-07T06:26:31.322Z,-8.6
2018-12-07T06:27:21.650Z,-8.6
2018-12-07T06:28:11.755Z,-8.4
2018-12-07T06:29:02.026Z,-8.3
2018-12-07T06:29:52.089Z,-8.2
2018-12-07T06:30:42.130Z,-8
2018-12-07T06:31:32.202Z,-7.8
2018-12-07T06:32:22.254Z,-7.6
2018-12-07T06:33:12.309Z,-7.2
2018-12-07T06:34:02.098Z,-6.9
2018-12-07T06:34:52.439Z,-6.6
2018-12-07T06:35:41.639Z,-6.1
2018-12-07T06:36:31.979Z,-5.8
2018-12-07T06:37:22.318Z,-5.4
2018-12-07T06:38:12.371Z,-4.9
2018-12-07T06:39:02.699Z,-4.6
2018-12-07T06:39:54.339Z,-4.1
2018-12-07T06:40:42.819Z,-3.7
2018-12-07T06:41:32.867Z,-3.3
2018-12-07T06:42:22.935Z,-2.8
2018-12-07T06:43:12.718Z,-2.4
2018-12-07T06:44:02.744Z,-1.9
2018-12-07T06:44:53.493Z,-1.4
2018-12-07T06:46:32.923Z,-0.4
2018-12-07T06:47:23.538Z,0.1
2018-12-07T06:48:13.168Z,0.6
2018-12-07T06:49:03.376Z,1.2
2018-12-07T06:49:53.713Z,1.8
2018-12-07T06:50:43.516Z,2.3
2018-12-07T06:51:33.671Z,2.7
2018-12-07T06:52:23.943Z,3.1
2018-12-07T06:53:13.102Z,3.4
2018-12-07T06:54:03.171Z,3.6
2018-12-07T06:54:53.773Z,3.9
2018-12-07T06:55:43.580Z,4.1
2018-12-07T06:56:33.965Z,4.4
2018-12-07T06:57:23.933Z,4.6
2018-12-07T06:58:14.007Z,4.9
2018-12-07T06:59:04.060Z,5.1
2018-12-07T06:59:54.107Z,5.4
2018-12-07T07:00:43.622Z,5.6
2018-12-07T07:01:34.227Z,5.9
2018-12-07T07:02:24.522Z,6.3
2018-12-07T07:03:14.050Z,6.6
2018-12-07T07:04:04.099Z,7.1
2018-12-07T07:04:54.459Z,7.6
2018-12-07T07:05:44.500Z,8.1
2018-12-07T07:06:34.591Z,8.8
2018-12-07T07:07:24.382Z,9.4
2018-12-07T07:08:14.647Z,10
2018-12-07T07:09:04.737Z,10.6
2018-12-07T07:09:54.784Z,11.3
2018-12-07T07:10:44.845Z,11.9
2018-12-07T07:11:34.899Z,12.6
2018-12-07T07:12:25.263Z,13.3
2018-12-07T07:13:14.751Z,14
2018-12-07T07:14:04.789Z,14.6
2018-12-07T07:14:55.119Z,15.3
2018-12-07T07:15:45.188Z,15.9
2018-12-07T07:16:35.241Z,16.4
2018-12-07T07:18:15.354Z,17.6
2018-12-07T07:19:05.155Z,18.3
2018-12-07T07:19:55.481Z,19
2018-12-07T07:20:45.504Z,19.9
2018-12-07T07:21:35.598Z,20.7
2018-12-07T07:22:25.369Z,21.4
2018-12-07T07:23:15.423Z,22.1
2018-12-07T07:24:05.821Z,22.6
2018-12-07T07:24:55.826Z,23.1
2018-12-07T07:25:45.936Z,23.5
2018-12-07T07:26:35.665Z,23.9
2018-12-07T07:27:25.991Z,24.4
2018-12-07T07:28:16.042Z,25
2018-12-07T07:29:06.418Z,25.6
2018-12-07T07:29:55.876Z,26.2
2018-12-07T07:30:46.213Z,26.8
2018-12-07T07:31:43.892Z,27.4
2018-12-07T07:32:26.057Z,28.1
2018-12-07T07:33:16.108Z,28.6
2018-12-07T07:34:06.438Z,29.4
2018-12-07T07:34:55.955Z,30.3
2018-12-07T07:35:46.563Z,31.2
2018-12-07T07:36:36.920Z,32.1
2018-12-07T07:37:26.682Z,32.9
2018-12-07T07:38:15.896Z,33.8
2018-12-07T07:39:06.994Z,34.5
2018-12-07T07:39:56.032Z,35.4
2018-12-07T07:40:46.895Z,36.1
2018-12-07T07:41:36.975Z,36.9
2018-12-07T07:42:27.010Z,37.8
2018-12-07T07:43:16.792Z,38.8
2018-12-07T07:44:07.154Z,39.6
2018-12-07T07:44:56.922Z,40.4
2018-12-07T07:45:47.244Z,41.2
2018-12-07T07:46:36.831Z,41.9
2018-12-07T07:47:27.367Z,42.7
2018-12-07T07:48:17.137Z,43.3
2018-12-07T07:49:06.960Z,43.8
2018-12-07T07:49:57.259Z,44.3
2018-12-07T07:50:46.839Z,44.8
2018-12-07T07:51:37.653Z,45.1
2018-12-07T07:52:27.696Z,45.4
2018-12-07T07:53:17.511Z,45.7
2018-12-07T07:54:07.551Z,45.9
2018-12-07T07:54:57.876Z,46.1
2018-12-07T07:55:47.929Z,46.5
2018-12-07T07:56:37.980Z,46.8
2018-12-07T07:57:28.042Z,47.1
2018-12-07T07:58:18.149Z,47.6
2018-12-07T07:59:07.331Z,47.9
2018-12-07T07:59:57.948Z,48.3
2018-12-07T08:00:48.533Z,48.8
2018-12-07T08:01:38.060Z,49.3
2018-12-07T08:02:29.179Z,49.8
2018-12-07T08:03:18.420Z,50.3
2018-12-07T08:04:08.240Z,50.8
2018-12-07T08:04:58.555Z,51.3
2018-12-07T08:05:48.588Z,51.7
2018-12-07T08:06:38.385Z,52
2018-12-07T08:07:28.455Z,52.3
2018-12-07T08:08:18.515Z,52.4
2018-12-07T08:09:08.873Z,52.5
2018-12-07T08:09:58.613Z,52.4
2018-12-07T08:10:49.207Z,52.4
2018-12-07T08:11:39.007Z,52.5
2018-12-07T08:12:29.173Z,52.5
2018-12-07T08:13:19.128Z,52.4
2018-12-07T08:14:09.233Z,52.3
2018-12-07T08:14:58.973Z,52.2
2018-12-07T08:15:49.032Z,52
2018-12-07T08:17:29.422Z,51.8
2018-12-07T08:18:19.530Z,51.7
2018-12-07T08:19:09.202Z,51.8
2018-12-07T08:19:59.592Z,51.8
2018-12-07T08:20:49.378Z,51.9
2018-12-07T08:22:29.474Z,52.1
2018-12-07T08:24:09.894Z,52.8
2018-12-07T08:24:59.672Z,53.1
2018-12-07T08:25:49.489Z,53.3
2018-12-07T08:26:39.764Z,53.6
2018-12-07T08:27:30.117Z,53.8
2018-12-07T08:28:20.184Z,53.9
2018-12-07T08:29:10.233Z,54.3
2018-12-07T08:30:00.259Z,55
2018-12-07T08:30:50.341Z,53
2018-12-07T08:31:39.929Z,50.9
2018-12-07T08:32:30.161Z,47.8
2018-12-07T08:33:20.556Z,41.5
2018-12-07T08:34:10.563Z,37.9
2018-12-07T08:35:00.663Z,36.1
2018-12-07T08:35:50.678Z,34.9
2018-12-07T08:36:40.741Z,34.1
2018-12-07T08:37:30.788Z,33.6
2018-12-07T08:38:20.566Z,33.6
2018-12-07T08:39:10.905Z,33.6
2018-12-07T08:40:01.018Z,33.8
2018-12-07T08:40:51.020Z,34.1
2018-12-07T08:41:40.811Z,34.6
2018-12-07T08:42:30.868Z,35.1
2018-12-07T08:43:21.200Z,35.6
2018-12-07T08:44:11.252Z,36.2
2018-12-07T08:45:01.051Z,36.6
2018-12-07T08:45:51.090Z,37.1
2018-12-07T08:46:41.229Z,37.4
2018-12-07T08:47:31.227Z,37.9
2018-12-07T08:48:21.280Z,38.3
2018-12-07T08:49:11.596Z,38.6
2018-12-07T08:50:01.464Z,38.9
2018-12-07T08:50:51.700Z,39
2018-12-07T08:51:42.031Z,39.1
2018-12-07T08:52:31.571Z,39.2
2018-12-07T09:08:18.146Z,52.1
2018-12-07T09:09:07.960Z,53.6
2018-12-07T09:09:58.241Z,54.6
2018-12-07T09:10:48.042Z,55.6
2018-12-07T09:11:38.598Z,58.3
2018-12-07T09:12:28.398Z,58.8
2018-12-07T09:13:18.523Z,56
2018-12-07T09:14:08.533Z,53.5
2018-12-07T09:14:58.601Z,48.8
2018-12-07T09:15:48.638Z,44.3
2018-12-07T09:16:39.001Z,42.3
2018-12-07T09:17:28.743Z,41.8
2018-12-07T09:18:18.536Z,42.3
2018-12-07T09:19:08.871Z,43.3
2018-12-07T09:19:58.635Z,44.5
2018-12-07T09:20:56.408Z,45.8
2018-12-07T09:21:39.292Z,47.3
2018-12-07T09:22:28.810Z,48.6
2018-12-07T09:23:19.135Z,49.9
2018-12-07T09:24:08.658Z,51.4
2018-12-07T09:24:58.723Z,52.8
2018-12-07T09:25:49.327Z,54.6
2018-12-07T09:26:39.430Z,57.8
2018-12-07T09:27:29.162Z,57.9
2018-12-07T09:28:19.587Z,57.5
2018-12-07T09:29:09.554Z,56.6
2018-12-07T09:29:59.332Z,53.9
2018-12-07T09:30:49.130Z,50.9
2018-12-07T09:31:39.192Z,48.8
2018-12-07T09:32:29.782Z,48.9
2018-12-07T09:33:19.847Z,50.5
2018-12-07T09:34:09.623Z,52.3
2018-12-07T09:34:59.750Z,53.3
2018-12-07T09:35:49.450Z,53.8
2018-12-07T09:36:40.062Z,53.6
2018-12-07T09:37:31.482Z,52.8
2018-12-07T09:38:20.187Z,52.1
2018-12-07T09:39:10.232Z,51.8
2018-12-07T09:40:00.335Z,51.8
2018-12-07T09:40:50.072Z,52.1
2018-12-07T09:41:40.449Z,52.3
2018-12-07T09:42:29.946Z,52.3
2018-12-07T09:43:20.232Z,52.1
2018-12-07T09:44:10.578Z,52
2018-12-07T09:45:50.681Z,52
2018-12-07T09:46:40.756Z,52.1
2018-12-07T09:47:30.306Z,52.3
2018-12-07T09:48:20.381Z,52.5
2018-12-07T09:49:11.309Z,52.6
2018-12-07T09:50:00.740Z,52.5
2018-12-07T09:50:50.744Z,52.4
2018-12-07T09:51:40.623Z,52.5
2018-12-07T09:52:31.150Z,52.5
2018-12-07T09:53:21.216Z,52.6
2018-12-07T09:54:11.530Z,52.6
2018-12-07T09:55:01.073Z,52.6
2018-12-07T09:55:51.487Z,52.8
2018-12-07T09:56:41.175Z,52.9
2018-12-07T09:57:31.550Z,52.9
2018-12-07T09:58:21.655Z,52.9
2018-12-07T09:59:11.078Z,52.9
2018-12-07T10:00:01.975Z,52.9
2018-12-07T10:00:51.978Z,52.9
2018-12-07T10:01:41.511Z,53
2018-12-07T10:02:31.956Z,53
2018-12-07T10:03:21.890Z,53.1
2018-12-07T10:04:12.010Z,53.2
2018-12-07T10:05:01.795Z,53.2
2018-12-07T10:05:51.524Z,53.3
2018-12-07T10:06:41.570Z,53.4
2018-12-07T10:07:32.210Z,53.5
2018-12-07T10:08:22.253Z,53.7
2018-12-07T10:09:12.308Z,53.9
2018-12-07T10:10:02.199Z,54.1
2018-12-07T10:10:51.880Z,54.3
2018-12-07T10:11:42.218Z,54.3
2018-12-07T10:12:32.553Z,54.3
2018-12-07T10:13:22.607Z,54.3
2018-12-07T10:14:12.382Z,54.3
2018-12-07T10:15:02.175Z,54.2
2018-12-07T10:15:52.478Z,54.3
2018-12-07T10:16:42.816Z,54.2
2018-12-07T10:17:32.964Z,53.9
2018-12-07T10:18:22.667Z,53.6
2018-12-07T10:19:12.990Z,53.4
2018-12-07T10:20:03.137Z,53.5
2018-12-07T10:20:52.848Z,53.7
2018-12-07T10:21:42.607Z,53.9
2018-12-07T10:22:32.959Z,53.8
2018-12-07T10:23:23.399Z,53.7
2018-12-07T10:24:13.339Z,53.7
2018-12-07T10:25:03.402Z,53.9
2018-12-07T10:25:53.174Z,54.1
2018-12-07T10:26:43.514Z,54.4
2018-12-07T10:27:33.279Z,54.6
2018-12-07T10:28:23.349Z,54.6
2018-12-07T10:29:13.449Z,54.6
2018-12-07T10:30:03.787Z,54.6
2018-12-07T10:30:53.530Z,54.6
2018-12-07T10:31:43.856Z,54.6
2018-12-07T10:32:33.634Z,54.5
2018-12-07T10:33:24.041Z,54.4
2018-12-07T10:34:13.744Z,54.6
2018-12-07T10:35:03.851Z,54.8
2018-12-07T10:35:54.105Z,54.9
2018-12-07T10:36:44.186Z,54.8
2018-12-07T10:37:34.250Z,54.8
2018-12-07T10:38:24.308Z,54.9
2018-12-07T10:39:14.137Z,55
2018-12-07T10:40:04.501Z,55.1
2018-12-07T10:40:53.931Z,55.2
2018-12-07T10:41:44.549Z,55.1
2018-12-07T10:42:34.696Z,55.2
2018-12-07T10:43:24.661Z,55.3
2018-12-07T10:44:14.686Z,55.3
2018-12-07T10:45:04.501Z,55.2
2018-12-07T10:45:54.568Z,55.1
2018-12-07T10:46:44.891Z,55.3
2018-12-07T10:47:35.353Z,55.4
2018-12-07T10:48:24.189Z,55.6
2018-12-07T10:49:15.179Z,55.7
2018-12-07T10:50:05.111Z,55.7
2018-12-07T10:50:54.889Z,55.6
2018-12-07T10:51:45.223Z,55.6
2018-12-07T10:52:35.285Z,55.7
2018-12-07T10:53:25.348Z,55.8
2018-12-07T10:54:14.918Z,55.9
2018-12-07T10:55:05.460Z,56
2018-12-07T10:55:55.263Z,56.1
2018-12-07T10:56:45.329Z,56.2
2018-12-07T10:57:35.649Z,56.2
2018-12-07T10:58:25.465Z,56.1
2018-12-07T10:59:15.778Z,56.1
2018-12-07T11:00:05.803Z,56.1
2018-12-07T11:00:55.563Z,56.1
2018-12-07T11:01:45.875Z,56.2
2018-12-07T11:02:35.970Z,56.2
2018-12-07T11:03:25.807Z,56.1
2018-12-07T11:04:15.877Z,55.9
2018-12-07T11:05:06.162Z,55.9
2018-12-07T11:05:56.193Z,56
2018-12-07T11:06:46.272Z,56
2018-12-07T11:07:36.317Z,55.8
2018-12-07T11:08:26.097Z,55.6
2018-12-07T11:09:14.827Z,55.4
2018-12-07T11:10:06.010Z,55.4
2018-12-07T11:10:56.609Z,55.4
2018-12-07T11:11:46.129Z,55.5
2018-12-07T11:12:36.214Z,55.6
2018-12-07T11:13:26.732Z,55.7
2018-12-07T11:14:16.789Z,55.6
2018-12-07T11:15:06.290Z,55.5
2018-12-07T11:15:56.882Z,55.6
2018-12-07T11:16:46.940Z,55.4
2018-12-07T11:17:36.783Z,55.4
2018-12-07T11:18:28.124Z,55.4
2018-12-07T11:19:16.687Z,55.5
2018-12-07T11:20:06.703Z,55.5
2018-12-07T11:20:56.745Z,55.4
2018-12-07T11:21:46.824Z,55.5
2018-12-07T11:22:36.869Z,55.5
2018-12-07T11:23:26.928Z,55.4
2018-12-07T11:24:16.716Z,55.2
2018-12-07T11:25:06.486Z,55.1
2018-12-07T11:25:57.179Z,55.2
2018-12-07T11:26:46.875Z,55.1
2018-12-07T11:27:36.932Z,55.1
2018-12-07T11:28:27.044Z,55.1
2018-12-07T11:29:17.051Z,55.2
2018-12-07T11:30:07.153Z,55.3
2018-12-07T11:30:57.180Z,55.1
2018-12-07T11:31:47.769Z,55.2
2018-12-07T11:32:37.563Z,55.3
2018-12-07T11:33:27.633Z,55.4
2018-12-07T11:34:17.668Z,55.4
2018-12-07T11:35:07.200Z,55.3
2018-12-07T11:35:57.790Z,55.4
2018-12-07T11:36:47.288Z,55.4
2018-12-07T11:37:38.106Z,55.4
2018-12-07T11:38:28.046Z,55.4
2018-12-07T11:39:17.753Z,55
2018-12-07T11:40:08.132Z,54.9
2018-12-07T11:40:58.433Z,55.1
2018-12-07T11:41:47.924Z,55.2
2018-12-07T11:42:38.255Z,55
2018-12-07T11:43:27.945Z,54.9
2018-12-07T11:44:18.107Z,55.1
2018-12-07T11:45:08.431Z,55.2
2018-12-07T11:45:58.740Z,55.3
2018-12-07T11:46:48.535Z,55.3
2018-12-07T11:47:39.161Z,55.3
2018-12-07T11:48:28.671Z,55.2
2018-12-07T11:49:18.417Z,55.1
2018-12-07T11:50:08.752Z,55.2
2018-12-07T11:50:59.307Z,55.1
2018-12-07T11:51:49.096Z,55.1
2018-12-07T11:52:39.680Z,55.2
2018-12-07T11:53:29.494Z,55.2
2018-12-07T11:54:19.058Z,55.3
2018-12-07T11:55:09.712Z,55.4
2018-12-07T11:55:59.901Z,55.4
2018-12-07T11:56:49.449Z,55.5
2018-12-07T11:57:39.769Z,55.6
2018-12-07T11:58:29.562Z,55.6
2018-12-07T11:59:19.374Z,55.6
2018-12-07T12:00:09.946Z,55.6
2018-12-07T12:01:00.299Z,55.4
2018-12-07T12:01:50.049Z,55.5
2018-12-07T12:02:39.856Z,55.6
2018-12-07T12:03:29.959Z,55.8
2018-12-07T12:04:20.223Z,55.9
2018-12-07T12:05:10.278Z,56.1
2018-12-07T12:06:00.352Z,56.3
2018-12-07T12:06:50.409Z,56.5
2018-12-07T12:07:40.506Z,56.5
2018-12-07T12:08:30.519Z,56.4
2018-12-07T12:09:20.571Z,56.4
2018-12-07T12:10:10.131Z,56.4
2018-12-07T12:11:00.428Z,56.6
2018-12-07T12:11:50.997Z,56.7
2018-12-07T12:12:40.779Z,56.9
2018-12-07T12:13:30.881Z,57.1
2018-12-07T12:14:20.965Z,57.2
2018-12-07T12:15:10.696Z,57.2
2018-12-07T12:16:00.748Z,57.3
2018-12-07T12:16:50.856Z,57.3
2018-12-07T12:17:40.378Z,57.3
2018-12-07T12:18:30.732Z,57.3
2018-12-07T12:19:21.264Z,57.4
2018-12-07T12:20:11.338Z,57.4